Time;durP1;ratioP1;P1;durP2;ratioP2;P2;SDS_P1;SDS_P2;PMS_P1;PMS_P2;Temp;Humidity;BMP_temperature;BMP_pressure;BME280_temperature;BME280_humidity;BME280_pressure;Samples;Min_cycle;Max_cycle;Signal;HPM_P1;HPM_P2
2023/02/20 00:03:01;;;;;;;7.28;2.45;;;;;;;;;;20979088;28;20048;-68
2023/02/20 00:13:03;;;;;;;8.18;2.60;;;;;;;;;;20997583;28;20127;-69
2023/02/20 00:23:05;;;;;;;8.95;2.65;;;;;;;;;;20997081;28;20091;-69
2023/02/20 00:33:06;;;;;;;7.50;2.35;;;;;;;;;;20978652;28;20041;-70
2023/02/20 00:43:07;;;;;;;11.27;2.95;;;;;;;;;;20996721;28;20241;-68
2023/02/20 00:53:08;;;;;;;8.02;2.72;;;;;;;;;;20995571;28;20049;-68
2023/02/20 01:03:11;;;;;;;6.13;2.45;;;;;;;;;;21006051;28;20430;-68
2023/02/20 01:13:13;;;;;;;10.50;2.67;;;;;;;;;;21011666;28;20131;-68
2023/02/20 01:23:14;;;;;;;7.20;2.00;;;;;;;;;;21011033;28;20044;-67
2023/02/20 01:33:15;;;;;;;7.20;2.22;;;;;;;;;;21010362;28;20041;-69
2023/02/20 01:43:16;;;;;;;11.27;3.08;;;;;;;;;;21007940;28;20052;-69
2023/02/20 01:53:21;;;;;;;10.55;2.95;;;;;;;;;;21008457;28;20126;-69
2023/02/20 02:03:24;;;;;;;17.70;3.17;;;;;;;;;;21006905;28;20051;-69
2023/02/20 02:13:28;;;;;;;9.93;2.70;;;;;;;;;;21006128;28;20060;-69
2023/02/20 02:23:49;;;;;;;7.53;2.97;;;;;;;;;;21006169;28;20060;-69
2023/02/20 02:33:53;;;;;;;7.32;2.47;;;;;;;;;;21004108;28;20135;-69
2023/02/20 02:44:08;;;;;;;8.50;3.05;;;;;;;;;;21056248;28;20140;-69
2023/02/20 02:54:12;;;;;;;13.88;2.80;;;;;;;;;;21089752;28;20047;-70
2023/02/20 03:04:22;;;;;;;14.10;2.55;;;;;;;;;;21091829;28;20130;-69
2023/02/20 03:24:55;;;;;;;16.92;3.53;;;;;;;;;;21083963;28;20417;-69
2023/02/20 03:45:22;;;;;;;8.75;2.25;;;;;;;;;;21082085;28;20121;-68
2023/02/20 03:55:25;;;;;;;12.98;3.03;;;;;;;;;;21082475;28;20383;-68
2023/02/20 04:05:28;;;;;;;8.90;2.50;;;;;;;;;;21080705;28;20088;-68
2023/02/20 04:15:32;;;;;;;11.38;2.67;;;;;;;;;;21081482;28;20044;-68
2023/02/20 04:25:44;;;;;;;11.10;2.95;;;;;;;;;;21080767;28;20048;-70
2023/02/20 04:35:48;;;;;;;12.63;3.25;;;;;;;;;;21080679;28;20462;-69
2023/02/20 04:45:50;;;;;;;10.65;2.58;;;;;;;;;;21010217;28;20067;-68
2023/02/20 04:55:53;;;;;;;9.60;2.72;;;;;;;;;;20995919;28;20060;-69
2023/02/20 05:05:56;;;;;;;14.45;2.75;;;;;;;;;;20995285;28;20474;-70
2023/02/20 05:15:59;;;;;;;8.70;2.67;;;;;;;;;;20995062;28;20151;-68
2023/02/20 05:26:01;;;;;;;12.40;2.30;;;;;;;;;;20993564;28;20048;-69
2023/02/20 05:36:04;;;;;;;10.80;2.45;;;;;;;;;;20977234;28;20501;-68
2023/02/20 05:46:07;;;;;;;11.70;2.70;;;;;;;;;;20996857;28;20053;-69
2023/02/20 05:56:09;;;;;;;11.10;3.22;;;;;;;;;;21008328;28;20048;-69
2023/02/20 06:06:11;;;;;;;12.52;2.70;;;;;;;;;;21007824;28;20075;-68
2023/02/20 06:16:21;;;;;;;8.70;2.67;;;;;;;;;;21007241;28;20050;-69
2023/02/20 06:26:23;;;;;;;13.00;3.05;;;;;;;;;;21004341;28;20048;-67
2023/02/20 06:36:28;;;;;;;15.75;3.72;;;;;;;;;;21004451;28;20087;-68
2023/02/20 06:46:30;;;;;;;12.50;3.28;;;;;;;;;;21003528;28;20084;-68
2023/02/20 06:56:33;;;;;;;16.60;3.70;;;;;;;;;;21003334;28;20049;-68
2023/02/20 07:06:36;;;;;;;15.68;3.67;;;;;;;;;;21002057;28;20075;-68
2023/02/20 07:16:38;;;;;;;19.80;3.80;;;;;;;;;;20981107;28;20045;-68
2023/02/20 07:26:41;;;;;;;20.85;4.07;;;;;;;;;;21000549;28;20457;-69
2023/02/20 07:36:43;;;;;;;12.48;3.35;;;;;;;;;;20999527;28;20048;-68
2023/02/20 07:46:45;;;;;;;12.35;3.72;;;;;;;;;;20997857;28;20068;-67
2023/02/20 07:56:47;;;;;;;17.25;4.13;;;;;;;;;;20998464;28;20444;-68
2023/02/20 08:06:49;;;;;;;13.00;4.25;;;;;;;;;;20996756;28;20057;-69
2023/02/20 08:16:51;;;;;;;21.67;6.47;;;;;;;;;;20997677;28;20094;-68
2023/02/20 08:26:54;;;;;;;16.63;5.55;;;;;;;;;;20995753;28;20053;-69
2023/02/20 08:36:56;;;;;;;19.08;4.78;;;;;;;;;;20995467;28;20144;-68
2023/02/20 08:46:58;;;;;;;18.35;4.53;;;;;;;;;;20994492;28;20139;-70
2023/02/20 08:57:00;;;;;;;17.70;4.25;;;;;;;;;;20995389;28;20055;-68
2023/02/20 09:07:02;;;;;;;22.95;5.90;;;;;;;;;;20994106;28;20114;-69
2023/02/20 09:17:05;;;;;;;24.95;5.25;;;;;;;;;;20976665;28;20080;-69
2023/02/20 09:27:08;;;;;;;20.95;4.90;;;;;;;;;;21008740;28;20082;-71
2023/02/20 09:37:12;;;;;;;21.73;5.32;;;;;;;;;;21009047;28;20051;-68
2023/02/20 09:47:23;;;;;;;20.10;4.28;;;;;;;;;;21007064;28;20095;-69
2023/02/20 09:57:26;;;;;;;16.95;4.57;;;;;;;;;;21007528;28;20056;-70
2023/02/20 10:07:30;;;;;;;13.88;3.30;;;;;;;;;;21006144;28;20110;-69
2023/02/20 10:17:44;;;;;;;16.08;3.30;;;;;;;;;;21007513;28;20045;-70
2023/02/20 10:28:07;;;;;;;11.38;2.78;;;;;;;;;;21014178;28;20053;-69
2023/02/20 10:38:09;;;;;;;;;;;;;;;;;;21004910;28;20098;-70
2023/02/20 10:48:15;;;;;;;15.35;2.15;;;;;;;;;;21004486;28;19921;-68
2023/02/20 10:58:19;;;;;;;7.97;1.33;;;;;;;;;;21002421;28;20087;-69
2023/02/20 11:08:21;;;;;;;8.85;1.63;;;;;;;;;;20985477;28;20122;-70
2023/02/20 11:18:31;;;;;;;6.57;1.45;;;;;;;;;;21000796;28;20052;-70
2023/02/20 11:28:35;;;;;;;6.85;1.23;;;;;;;;;;21000902;28;20056;-69
2023/02/20 11:38:37;;;;;;;5.53;1.40;;;;;;;;;;20999670;28;20124;-68
2023/02/20 11:48:56;;;;;;;10.25;1.58;;;;;;;;;;20998373;28;20502;-69
2023/02/20 11:59:13;;;;;;;4.72;0.90;;;;;;;;;;20998684;28;20052;-70
2023/02/20 12:09:20;;;;;;;5.05;1.27;;;;;;;;;;20998003;28;20123;-69
2023/02/20 12:19:34;;;;;;;7.68;1.50;;;;;;;;;;20997328;28;20051;-69
2023/02/20 12:29:49;;;;;;;5.47;1.23;;;;;;;;;;20997996;28;20147;-70
2023/02/20 12:39:52;;;;;;;7.68;1.33;;;;;;;;;;20995802;28;20091;-69
2023/02/20 12:49:57;;;;;;;4.97;1.35;;;;;;;;;;20995514;28;20481;-70
2023/02/20 13:00:01;;;;;;;4.22;1.15;;;;;;;;;;21007729;28;20044;-69
2023/02/20 13:10:06;;;;;;;6.72;1.45;;;;;;;;;;20992718;28;20044;-70
2023/02/20 13:20:37;;;;;;;4.43;1.48;;;;;;;;;;21011445;28;20143;-68
2023/02/20 13:30:40;;;;;;;7.18;1.25;;;;;;;;;;21007066;28;20056;-69
2023/02/20 13:40:43;;;;;;;6.60;1.60;;;;;;;;;;21008161;28;20075;-70
2023/02/20 13:50:45;;;;;;;4.68;1.35;;;;;;;;;;21007859;28;20509;-69
2023/02/20 14:00:51;;;;;;;6.50;1.52;;;;;;;;;;21008148;28;20076;-67
2023/02/20 14:10:53;;;;;;;7.97;1.70;;;;;;;;;;21006343;28;20061;-69
2023/02/20 14:21:09;;;;;;;14.23;1.63;;;;;;;;;;21006788;28;20048;-71
2023/02/20 14:31:12;;;;;;;8.23;1.48;;;;;;;;;;21005904;28;20044;-67
2023/02/20 14:41:18;;;;;;;9.52;1.90;;;;;;;;;;21004600;28;20056;-68
2023/02/20 14:51:25;;;;;;;7.80;1.73;;;;;;;;;;21004917;28;20049;-72
2023/02/20 15:01:28;;;;;;;10.48;1.85;;;;;;;;;;21002986;28;20052;-69
2023/02/20 15:11:33;;;;;;;7.40;1.92;;;;;;;;;;20985217;28;20067;-69
2023/02/20 15:21:41;;;;;;;10.88;2.08;;;;;;;;;;21001595;28;20409;-69
2023/02/20 15:31:44;;;;;;;5.93;1.60;;;;;;;;;;21000773;28;20044;-69
2023/02/20 15:41:46;;;;;;;5.18;1.52;;;;;;;;;;21033236;28;20077;-68
2023/02/20 15:51:49;;;;;;;8.93;1.70;;;;;;;;;;21083000;28;20490;-69
2023/02/20 16:01:51;;;;;;;7.15;2.10;;;;;;;;;;21081703;28;20178;-71
2023/02/20 16:11:54;;;;;;;4.30;1.52;;;;;;;;;;21080665;28;20058;-70
2023/02/20 16:21:56;;;;;;;13.55;1.83;;;;;;;;;;21081551;28;20051;-70
2023/02/20 16:32:01;;;;;;;6.68;1.83;;;;;;;;;;21080869;28;20070;-69
2023/02/20 16:42:07;;;;;;;8.27;1.95;;;;;;;;;;21079185;28;20055;-69
2023/02/20 16:52:16;;;;;;;9.90;1.88;;;;;;;;;;21079482;28;20497;-70
2023/02/20 17:02:21;;;;;;;7.88;1.85;;;;;;;;;;21079703;28;20486;-71
2023/02/20 17:12:23;;;;;;;8.00;1.60;;;;;;;;;;21069625;28;20455;-65
2023/02/20 17:22:25;;;;;;;10.93;3.08;;;;;;;;;;20983453;28;20067;-70
2023/02/20 17:32:27;;;;;;;10.98;2.47;;;;;;;;;;20979106;28;20558;-74
2023/02/20 17:42:29;;;;;;;9.30;2.35;;;;;;;;;;21029313;28;20571;-69
2023/02/20 17:52:31;;;;;;;7.18;2.03;;;;;;;;;;21080659;28;20150;-70
2023/02/20 18:02:33;;;;;;;8.93;2.00;;;;;;;;;;21082248;28;20044;-71
2023/02/20 18:12:35;;;;;;;6.18;1.40;;;;;;;;;;21083323;28;20410;-67
2023/02/20 18:22:37;;;;;;;7.35;1.85;;;;;;;;;;21080339;28;20044;-66
2023/02/20 18:32:38;;;;;;;6.72;1.77;;;;;;;;;;21082183;28;20563;-65
2023/02/20 18:42:40;;;;;;;11.02;2.45;;;;;;;;;;21091770;28;20125;-71
2023/02/20 18:52:44;;;;;;;7.80;2.22;;;;;;;;;;21092134;28;20090;-71
2023/02/20 19:02:47;;;;;;;7.07;2.58;;;;;;;;;;21071909;28;20052;-69
2023/02/20 19:12:49;;;;;;;10.15;4.10;;;;;;;;;;21086892;28;20116;-74
2023/02/20 19:22:51;;;;;;;7.13;2.88;;;;;;;;;;21085373;28;20056;-73
2023/02/20 19:32:52;;;;;;;6.93;3.50;;;;;;;;;;21066743;28;20084;-73
2023/02/20 19:42:55;;;;;;;7.95;3.97;;;;;;;;;;21083414;28;20048;-73
2023/02/20 19:52:57;;;;;;;9.98;3.25;;;;;;;;;;21084077;28;20543;-73
2023/02/20 20:02:59;;;;;;;9.20;3.30;;;;;;;;;;21083264;28;20079;-72
2023/02/20 20:13:00;;;;;;;7.00;2.70;;;;;;;;;;21081335;28;20088;-72
2023/02/20 20:23:04;;;;;;;9.43;3.20;;;;;;;;;;21080308;28;20078;-71
2023/02/20 20:33:07;;;;;;;9.05;3.60;;;;;;;;;;21082620;28;20044;-72
2023/02/20 20:43:09;;;;;;;13.48;4.47;;;;;;;;;;21079736;28;20047;-71
2023/02/20 20:53:12;;;;;;;12.10;4.15;;;;;;;;;;21080114;28;20052;-73
2023/02/20 21:03:14;;;;;;;13.45;5.30;;;;;;;;;;21080096;28;20397;-71
2023/02/20 21:13:16;;;;;;;14.30;5.78;;;;;;;;;;21060452;28;20051;-72
2023/02/20 21:23:18;;;;;;;12.27;4.28;;;;;;;;;;21094230;28;20051;-71
2023/02/20 21:33:19;;;;;;;7.45;3.33;;;;;;;;;;21095150;28;20059;-72
2023/02/20 21:53:41;;;;;;;6.93;3.38;;;;;;;;;;21099922;28;20039;-69
